createdAt,value
2022-10-03T00:00:14.058Z,99155.78
2022-10-03T00:03:20.743Z,99151.47
2022-10-03T00:06:02.382Z,99155.78
2022-10-03T00:09:00.331Z,99155.78
2022-10-03T00:11:41.280Z,99150.44
2022-10-03T00:14:20.199Z,99150.44
2022-10-03T00:16:55.238Z,99143.47
2022-10-03T00:19:37.118Z,99154.97
2022-10-03T00:22:19.135Z,99147.97
2022-10-03T00:25:00.234Z,99139.16
2022-10-03T00:27:34.930Z,99147.97
2022-10-03T00:30:16.916Z,99141.00
2022-10-03T00:33:05.375Z,99141.84
2022-10-03T00:36:03.269Z,99147.19
2022-10-03T00:39:10.132Z,99151.69
2022-10-03T00:42:27.096Z,99140.19
2022-10-03T00:45:37.392Z,99142.88
2022-10-03T00:48:27.380Z,99141.00
2022-10-03T00:51:20.702Z,99140.19
2022-10-03T00:54:04.836Z,99136.69
2022-10-03T00:56:53.485Z,99143.88
2022-10-03T00:59:34.524Z,99138.53
2022-10-03T01:02:25.766Z,99138.53
2022-10-03T01:05:05.061Z,99147.38
2022-10-03T01:07:44.625Z,99144.69
2022-10-03T01:10:22.326Z,99143.88
2022-10-03T01:13:04.651Z,99155.38
2022-10-03T01:15:44.738Z,99156.41
2022-10-03T01:18:26.015Z,99166.25
2022-10-03T01:21:05.554Z,99163.59
2022-10-03T01:24:20.073Z,99172.44
2022-10-03T01:26:57.022Z,99168.09
2022-10-03T01:29:59.742Z,99168.94
2022-10-03T01:32:38.162Z,99179.59
2022-10-03T01:35:19.506Z,99185.34
2022-10-03T01:37:58.716Z,99183.50
2022-10-03T01:40:30.848Z,99183.91
2022-10-03T01:43:12.165Z,99177.50
2022-10-03T01:45:54.841Z,99188.97
2022-10-03T01:48:30.284Z,99191.00
2022-10-03T01:51:03.717Z,99195.72
2022-10-03T01:53:43.838Z,99193.06
2022-10-03T01:56:22.311Z,99191.44
2022-10-03T01:58:59.812Z,99198.41
2022-10-03T02:01:36.895Z,99202.09
2022-10-03T02:04:14.054Z,99211.09
2022-10-03T02:06:52.725Z,99212.13
2022-10-03T02:09:30.839Z,99221.16
2022-10-03T02:12:08.915Z,99219.50
2022-10-03T02:14:49.704Z,99222.38
2022-10-03T02:17:31.697Z,99226.25
2022-10-03T02:20:09.926Z,99231.59
2022-10-03T02:22:46.612Z,99246.78
2022-10-03T02:25:25.070Z,99241.47
2022-10-03T02:28:25.734Z,99255.00
2022-10-03T02:31:16.118Z,99245.31
2022-10-03T02:34:17.244Z,99252.72
2022-10-03T02:37:09.038Z,99250.03
2022-10-03T02:40:11.529Z,99255.97
2022-10-03T02:43:12.830Z,99257.00
2022-10-03T02:46:44.267Z,99256.22
2022-10-03T02:49:39.660Z,99262.34
2022-10-03T02:52:42.929Z,99268.53
2022-10-03T02:55:37.203Z,99267.69
2022-10-03T02:58:32.281Z,99262.34
2022-10-03T03:01:26.679Z,99271.38
2022-10-03T03:04:18.851Z,99275.06
2022-10-03T03:07:05.258Z,99279.56
2022-10-03T03:09:56.126Z,99289.41
2022-10-03T03:12:50.744Z,99292.28
2022-10-03T03:15:54.869Z,99289.59
2022-10-03T03:18:34.571Z,99293.75
2022-10-03T03:21:25.710Z,99303.41
2022-10-03T03:24:14.825Z,99296.41
2022-10-03T03:27:00.445Z,99301.75
2022-10-03T03:29:40.275Z,99306.06
2022-10-03T03:32:19.856Z,99308.72
2022-10-03T03:34:59.496Z,99314.06
2022-10-03T03:37:33.628Z,99315.91
2022-10-03T03:40:18.877Z,99328.84
2022-10-03T03:43:08.915Z,99319.81
2022-10-03T03:45:54.601Z,99317.81
2022-10-03T03:48:45.054Z,99323.97
2022-10-03T03:51:28.965Z,99320.28
2022-10-03T03:54:34.897Z,99321.13
2022-10-03T03:57:18.901Z,99324.59
2022-10-03T04:00:10.590Z,99323.56
2022-10-03T04:02:57.338Z,99334.22
2022-10-03T04:05:40.933Z,99334.22
2022-10-03T04:08:23.789Z,99339.56
2022-10-03T04:11:03.825Z,99339.56
2022-10-03T04:13:47.855Z,99338.75
2022-10-03T04:16:50.477Z,99349.44
2022-10-03T04:19:31.049Z,99345.31
2022-10-03T04:22:30.191Z,99356.06
2022-10-03T04:25:32.529Z,99355.56
2022-10-03T04:28:34.598Z,99364.78
2022-10-03T04:31:20.811Z,99362.31
2022-10-03T04:34:04.127Z,99363.34
2022-10-03T04:36:58.540Z,99371.72
2022-10-03T04:39:37.356Z,99375.41
2022-10-03T04:42:17.716Z,99384.03
2022-10-03T04:45:02.668Z,99391.41
2022-10-03T04:47:43.958Z,99388.09
2022-10-03T04:50:29.757Z,99390.59
2022-10-03T04:53:15.099Z,99390.78
2022-10-03T04:55:49.057Z,99393.63
2022-10-03T04:58:27.354Z,99393.00
2022-10-03T05:01:07.112Z,99392.19
2022-10-03T05:03:44.738Z,99408.00
2022-10-03T05:06:27.518Z,99393.00
2022-10-03T05:09:04.898Z,99405.50
2022-10-03T05:11:47.540Z,99413.13
2022-10-03T05:14:23.966Z,99422.16
2022-10-03T05:17:05.163Z,99424.81
2022-10-03T05:19:49.365Z,99411.13
2022-10-03T05:22:26.572Z,99420.94
2022-10-03T05:25:03.407Z,99419.72
2022-10-03T05:27:42.396Z,99421.38
2022-10-03T05:30:18.130Z,99425.91
2022-10-03T05:32:52.982Z,99424.22
2022-10-03T05:35:44.992Z,99422.41
2022-10-03T05:38:41.658Z,99421.38
2022-10-03T05:41:21.631Z,99432.88
2022-10-03T05:44:03.318Z,99431.25
2022-10-03T05:46:42.864Z,99434.72
2022-10-03T05:49:37.412Z,99432.88
2022-10-03T05:52:43.696Z,99443.38
2022-10-03T05:55:29.682Z,99442.16
2022-10-03T05:58:29.004Z,99456.31
2022-10-03T06:01:04.035Z,99462.09
2022-10-03T06:04:09.306Z,99464.13
2022-10-03T06:06:53.500Z,99469.47
2022-10-03T06:09:47.825Z,99466.16
2022-10-03T06:12:24.187Z,99479.69
2022-10-03T06:15:18.340Z,99480.34
2022-10-03T06:18:04.774Z,99476.09
2022-10-03T06:21:08.518Z,99485.56
2022-10-03T06:23:59.633Z,99488.94
2022-10-03T06:26:51.267Z,99496.53
2022-10-03T06:29:45.876Z,99502.69
2022-10-03T06:32:38.471Z,99496.72
2022-10-03T06:35:47.600Z,99496.06
2022-10-03T06:38:54.013Z,99489.91
2022-10-03T06:41:48.336Z,99490.72
2022-10-03T06:44:32.444Z,99490.72
2022-10-03T06:47:33.547Z,99494.47
2022-10-03T06:50:35.840Z,99505.53
2022-10-03T06:53:33.053Z,99502.22
2022-10-03T06:56:38.513Z,99495.06
2022-10-03T06:59:27.298Z,99494.41
2022-10-03T07:02:25.189Z,99497.09
2022-10-03T07:05:43.499Z,99507.13
2022-10-03T07:08:45.485Z,99507.13
2022-10-03T07:11:35.537Z,99507.13
2022-10-03T07:14:55.489Z,99510.59
2022-10-03T07:17:52.241Z,99512.47
2022-10-03T07:20:47.053Z,99518.41
2022-10-03T07:23:47.837Z,99508.41
2022-10-03T07:26:51.106Z,99514.53
2022-10-03T07:29:37.054Z,99515.00
2022-10-03T07:32:52.587Z,99511.69
2022-10-03T07:36:00.764Z,99522.91
2022-10-03T07:39:01.161Z,99513.75
2022-10-03T07:41:57.629Z,99517.78
2022-10-03T07:45:00.082Z,99523.50
2022-10-03T07:48:03.654Z,99515.69
2022-10-03T07:50:51.627Z,99514.84
2022-10-03T07:53:37.585Z,99509.50
2022-10-03T07:56:21.422Z,99517.69
2022-10-03T07:59:19.974Z,99515.88
2022-10-03T08:02:02.979Z,99529.56
2022-10-03T08:04:53.674Z,99521.22
2022-10-03T08:07:42.861Z,99523.53
2022-10-03T08:10:29.438Z,99526.75
2022-10-03T08:13:28.113Z,99533.66
2022-10-03T08:16:21.096Z,99535.69
2022-10-03T08:19:21.874Z,99528.06
2022-10-03T08:22:06.361Z,99533.38
2022-10-03T08:25:04.398Z,99542.22
2022-10-03T08:28:02.809Z,99536.06
2022-10-03T08:30:44.436Z,99538.72
2022-10-03T08:33:43.742Z,99536.06
2022-10-03T08:36:21.534Z,99537.88
2022-10-03T08:38:57.070Z,99540.53
2022-10-03T08:41:58.179Z,99540.72
2022-10-03T08:44:58.802Z,99537.63
2022-10-03T08:48:10.611Z,99537.97
2022-10-03T08:51:17.001Z,99547.81
2022-10-03T08:54:05.966Z,99547.81
2022-10-03T08:56:49.640Z,99547.81
2022-10-03T08:59:50.888Z,99550.28
2022-10-03T09:03:31.934Z,99547.81
2022-10-03T09:06:34.661Z,99551.69
2022-10-03T09:09:45.192Z,99554.53
2022-10-03T09:12:53.125Z,99554.06
2022-10-03T09:15:51.507Z,99564.09
2022-10-03T09:18:45.165Z,99557.47
2022-10-03T09:21:45.089Z,99560.88
2022-10-03T09:24:35.263Z,99574.66
2022-10-03T09:27:34.196Z,99570.50
2022-10-03T09:30:35.269Z,99586.50
2022-10-03T09:33:45.345Z,99581.34
2022-10-03T09:36:42.950Z,99586.50
2022-10-03T09:39:47.056Z,99579.91
2022-10-03T09:42:49.401Z,99586.03
2022-10-03T09:45:40.640Z,99584.38
2022-10-03T09:48:27.104Z,99589.81
2022-10-03T09:51:22.741Z,99590.94
2022-10-03T09:54:44.331Z,99581.06
2022-10-03T09:57:44.943Z,99586.22
2022-10-03T10:00:25.385Z,99583.38
2022-10-03T10:03:22.514Z,99592.22
2022-10-03T10:06:24.997Z,99592.22
2022-10-03T10:09:24.241Z,99587.50
2022-10-03T10:12:31.595Z,99591.19
2022-10-03T10:15:28.554Z,99598.16
2022-10-03T10:18:26.420Z,99585.88
2022-10-03T10:21:30.213Z,99600.84
2022-10-03T10:24:20.412Z,99593.50
2022-10-03T10:27:22.048Z,99597.81
2022-10-03T10:30:28.678Z,99599.47
2022-10-03T10:33:51.063Z,99603.78
2022-10-03T10:37:00.523Z,99606.47
2022-10-03T10:40:08.189Z,99595.81
2022-10-03T10:43:15.815Z,99593.75
2022-10-03T10:46:19.824Z,99597.44
2022-10-03T10:49:34.024Z,99597.63
2022-10-03T10:52:48.330Z,99595.81
2022-10-03T10:55:55.215Z,99596.78
2022-10-03T10:58:58.248Z,99608.47
2022-10-03T11:02:11.079Z,99609.31
2022-10-03T11:05:19.073Z,99595.13
2022-10-03T11:08:37.480Z,99595.97
2022-10-03T11:11:36.492Z,99602.03
2022-10-03T11:14:43.870Z,99616.47
2022-10-03T11:17:48.569Z,99605.34
2022-10-03T11:20:55.443Z,99606.53
2022-10-03T11:23:51.744Z,99607.09
2022-10-03T11:26:57.422Z,99611.78
2022-10-03T11:30:05.186Z,99618.13
2022-10-03T11:33:12.757Z,99607.44
2022-10-03T11:36:10.128Z,99605.81
2022-10-03T11:38:47.651Z,99603.13
2022-10-03T11:41:28.346Z,99603.97
2022-10-03T11:44:10.110Z,99608.47
2022-10-03T11:47:21.186Z,99611.78
2022-10-03T11:50:19.011Z,99604.78
2022-10-03T11:53:03.722Z,99606.47
2022-10-03T11:55:37.172Z,99611.44
2022-10-03T11:58:26.796Z,99612.72
2022-10-03T12:01:00.564Z,99612.34
2022-10-03T12:03:32.912Z,99615.03
2022-10-03T12:06:34.342Z,99611.31
2022-10-03T12:09:18.650Z,99602.97
2022-10-03T12:11:56.503Z,99600.13
2022-10-03T12:14:30.458Z,99601.56
2022-10-03T12:17:12.791Z,99605.72
2022-10-03T12:19:56.467Z,99597.72
2022-10-03T12:22:42.123Z,99606.72
2022-10-03T12:25:21.260Z,99603.22
2022-10-03T12:27:58.327Z,99609.41
2022-10-03T12:30:29.712Z,99609.41
2022-10-03T12:33:15.029Z,99620.06
2022-10-03T12:35:50.751Z,99610.41
2022-10-03T12:38:41.999Z,99608.56
2022-10-03T12:41:24.388Z,99605.88
2022-10-03T12:44:08.400Z,99612.88
2022-10-03T12:46:46.713Z,99612.50
2022-10-03T12:49:21.789Z,99627.69
2022-10-03T12:51:56.477Z,99624.00
2022-10-03T12:54:45.268Z,99619.69
2022-10-03T12:57:45.090Z,99629.53
2022-10-03T13:00:21.796Z,99625.22
2022-10-03T13:03:08.187Z,99625.22
2022-10-03T13:05:55.881Z,99626.03
2022-10-03T13:08:42.093Z,99626.19
2022-10-03T13:11:26.461Z,99628.69
2022-10-03T13:14:13.720Z,99623.16
2022-10-03T13:16:54.461Z,99613.34
2022-10-03T13:19:27.721Z,99624.00
2022-10-03T13:22:07.333Z,99621.53
2022-10-03T13:24:40.556Z,99626.84
2022-10-03T13:27:33.564Z,99628.50
2022-10-03T13:30:07.862Z,99626.84
2022-10-03T13:32:39.279Z,99637.53
2022-10-03T13:35:37.388Z,99629.72
2022-10-03T13:38:23.771Z,99637.53
2022-10-03T13:40:59.241Z,99641.22
2022-10-03T13:43:36.604Z,99641.22
2022-10-03T13:46:12.306Z,99640.84
2022-10-03T13:48:43.068Z,99643.34
2022-10-03T13:51:22.370Z,99640.66
2022-10-03T13:53:59.974Z,99635.34
2022-10-03T13:56:46.993Z,99644.31
2022-10-03T13:59:33.209Z,99639.00
2022-10-03T14:02:15.637Z,99640.84
2022-10-03T14:05:01.000Z,99647.16
2022-10-03T14:07:41.784Z,99657.84
2022-10-03T14:10:49.451Z,99650.03
2022-10-03T14:13:28.678Z,99655.19
2022-10-03T14:16:06.140Z,99659.53
2022-10-03T14:18:47.558Z,99659.53
2022-10-03T14:21:49.895Z,99664.19
2022-10-03T14:24:39.433Z,99664.19
2022-10-03T14:27:24.132Z,99660.88
2022-10-03T14:30:02.014Z,99662.72
2022-10-03T14:32:48.156Z,99671.75
2022-10-03T14:35:30.624Z,99666.59
2022-10-03T14:38:04.832Z,99665.59
2022-10-03T14:40:40.802Z,99671.09
2022-10-03T14:43:34.914Z,99680.91
2022-10-03T14:46:06.288Z,99689.59
2022-10-03T14:48:40.259Z,99681.22
2022-10-03T14:51:16.389Z,99685.09
2022-10-03T14:53:52.611Z,99689.59
2022-10-03T14:56:23.668Z,99687.94
2022-10-03T14:58:55.205Z,99689.59
2022-10-03T15:01:26.152Z,99693.91
2022-10-03T15:04:01.812Z,99694.72
2022-10-03T15:06:53.790Z,99691.22
2022-10-03T15:09:26.830Z,99691.22
2022-10-03T15:12:01.966Z,99694.91
2022-10-03T15:14:34.772Z,99696.91
2022-10-03T15:17:07.003Z,99707.59
2022-10-03T15:19:40.398Z,99711.09
2022-10-03T15:22:24.019Z,99709.28
2022-10-03T15:24:55.158Z,99712.94
2022-10-03T15:27:25.497Z,99700.59
2022-10-03T15:29:56.914Z,99705.94
2022-10-03T15:32:28.901Z,99710.44
2022-10-03T15:35:02.525Z,99714.97
2022-10-03T15:37:35.817Z,99718.25
2022-10-03T15:40:11.181Z,99717.44
2022-10-03T15:42:50.345Z,99715.59
2022-10-03T15:45:29.544Z,99721.94
2022-10-03T15:48:01.822Z,99714.59
2022-10-03T15:50:35.271Z,99719.94
2022-10-03T15:53:34.366Z,99719.94
2022-10-03T15:56:07.561Z,99727.94
2022-10-03T15:58:38.591Z,99726.91
2022-10-03T16:01:11.490Z,99735.94
2022-10-03T16:03:47.393Z,99723.59
2022-10-03T16:06:22.046Z,99721.94
2022-10-03T16:09:00.492Z,99722.78
2022-10-03T16:11:33.943Z,99720.28
2022-10-03T16:14:16.221Z,99714.97
2022-10-03T16:16:50.893Z,99713.94
2022-10-03T16:19:31.482Z,99718.44
2022-10-03T16:22:12.779Z,99716.59
2022-10-03T16:24:44.488Z,99723.72
2022-10-03T16:27:19.262Z,99728.19
2022-10-03T16:29:55.627Z,99718.91
2022-10-03T16:32:27.526Z,99726.25
2022-10-03T16:35:01.574Z,99722.31
2022-10-03T16:37:33.282Z,99722.97
2022-10-03T16:40:04.014Z,99718.63
2022-10-03T16:42:41.374Z,99719.47
2022-10-03T16:45:22.317Z,99715.59
2022-10-03T16:48:13.718Z,99721.09
2022-10-03T16:50:46.027Z,99713.09
2022-10-03T16:53:16.908Z,99719.75
2022-10-03T16:55:48.787Z,99724.44
2022-10-03T16:58:25.026Z,99732.59
2022-10-03T17:01:21.957Z,99731.94
2022-10-03T17:03:48.899Z,99736.66
2022-10-03T17:06:22.528Z,99734.25
2022-10-03T17:08:54.593Z,99739.13
2022-10-03T17:11:28.890Z,99729.59
2022-10-03T17:14:01.306Z,99730.31
2022-10-03T17:16:44.136Z,99729.84
2022-10-03T17:19:22.331Z,99730.38
2022-10-03T17:21:55.034Z,99723.59
2022-10-03T17:24:40.534Z,99723.53
2022-10-03T17:27:17.445Z,99728.28
2022-10-03T17:29:51.384Z,99728.78
2022-10-03T17:32:27.318Z,99728.41
2022-10-03T17:35:01.925Z,99733.75
2022-10-03T17:37:59.261Z,99730.06
2022-10-03T17:40:49.753Z,99726.38
2022-10-03T17:43:20.640Z,99726.00
2022-10-03T17:45:58.648Z,99726.88
2022-10-03T17:48:39.287Z,99733.06
2022-10-03T17:51:31.567Z,99738.38
2022-10-03T17:54:01.565Z,99727.72
2022-10-03T17:56:34.412Z,99726.88
2022-10-03T17:59:06.418Z,99728.53
2022-10-03T18:01:41.093Z,99726.69
2022-10-03T18:04:18.134Z,99724.03
2022-10-03T18:06:50.529Z,99723.00
2022-10-03T18:09:32.811Z,99723.00
2022-10-03T18:12:17.187Z,99724.84
2022-10-03T18:15:04.045Z,99727.72
2022-10-03T18:17:41.575Z,99733.69
2022-10-03T18:20:26.347Z,99743.31
2022-10-03T18:23:02.076Z,99754.00
2022-10-03T18:26:19.990Z,99762.84
2022-10-03T18:29:02.261Z,99759.81
2022-10-03T18:31:35.158Z,99770.31
2022-10-03T18:34:13.740Z,99781.59
2022-10-03T18:36:47.205Z,99806.28
2022-10-03T18:39:19.669Z,99813.09
2022-10-03T18:41:50.479Z,99813.38
2022-10-03T18:44:23.243Z,99820.06
2022-10-03T18:46:57.855Z,99821.28
2022-10-03T18:49:33.874Z,99816.94
2022-10-03T18:52:11.574Z,99810.13
2022-10-03T18:54:55.308Z,99796.78
2022-10-03T18:57:28.091Z,99774.63
2022-10-03T19:00:05.659Z,99775.63
2022-10-03T19:02:37.896Z,99773.81
2022-10-03T19:05:14.580Z,99772.06
2022-10-03T19:07:49.979Z,99754.44
2022-10-03T19:10:38.566Z,99753.56
2022-10-03T19:13:26.365Z,99762.66
2022-10-03T19:16:20.519Z,99750.78
2022-10-03T19:19:02.775Z,99749.81
2022-10-03T19:21:37.316Z,99748.59
2022-10-03T19:24:12.289Z,99752.06
2022-10-03T19:26:45.963Z,99759.09
2022-10-03T19:29:18.450Z,99755.41
2022-10-03T19:31:57.516Z,99755.22
2022-10-03T19:34:33.901Z,99767.72
2022-10-03T19:37:02.728Z,99776.38
2022-10-03T19:39:33.788Z,99770.22
2022-10-03T19:42:21.933Z,99770.03
2022-10-03T19:44:51.322Z,99773.53
2022-10-03T19:47:22.403Z,99768.19
2022-10-03T19:49:56.568Z,99769.84
2022-10-03T19:52:30.239Z,99762.50
2022-10-03T19:55:06.264Z,99761.84
2022-10-03T19:57:47.995Z,99767.34
2022-10-03T20:00:29.272Z,99764.06
2022-10-03T20:03:08.148Z,99769.41
2022-10-03T20:05:44.513Z,99755.41
2022-10-03T20:08:27.325Z,99756.25
2022-10-03T20:11:15.150Z,99752.72
2022-10-03T20:13:45.120Z,99756.41
2022-10-03T20:16:17.154Z,99766.06
2022-10-03T20:18:50.677Z,99768.91
2022-10-03T20:21:21.461Z,99764.44
2022-10-03T20:23:50.649Z,99763.59
2022-10-03T20:26:26.347Z,99761.94
2022-10-03T20:29:15.308Z,99766.44
2022-10-03T20:31:45.442Z,99761.94
2022-10-03T20:34:26.441Z,99756.59
2022-10-03T20:37:04.641Z,99764.59
2022-10-03T20:39:37.668Z,99746.91
2022-10-03T20:42:11.790Z,99744.25
2022-10-03T20:44:57.989Z,99746.91
2022-10-03T20:47:59.093Z,99754.91
2022-10-03T20:50:33.691Z,99754.91
2022-10-03T20:53:04.194Z,99738.91
2022-10-03T20:55:37.569Z,99745.28
2022-10-03T20:58:16.463Z,99748.78
2022-10-03T21:00:49.133Z,99746.91
2022-10-03T21:03:28.578Z,99737.25
2022-10-03T21:05:59.383Z,99743.44
2022-10-03T21:08:31.211Z,99753.28
2022-10-03T21:11:02.307Z,99747.94
2022-10-03T21:13:36.199Z,99743.63
2022-10-03T21:16:16.141Z,99737.25
2022-10-03T21:18:47.417Z,99734.59
2022-10-03T21:21:23.489Z,99740.97
2022-10-03T21:23:58.105Z,99737.25
2022-10-03T21:26:30.928Z,99733.97
2022-10-03T21:29:26.643Z,99738.28
2022-10-03T21:32:10.196Z,99736.47
2022-10-03T21:34:48.191Z,99740.97
2022-10-03T21:37:28.343Z,99735.63
2022-10-03T21:40:14.224Z,99731.94
2022-10-03T21:42:54.990Z,99724.94
2022-10-03T21:45:31.776Z,99731.13
2022-10-03T21:48:08.336Z,99735.63
2022-10-03T21:50:47.223Z,99733.78
2022-10-03T21:53:25.354Z,99728.44
2022-10-03T21:56:11.183Z,99730.28
2022-10-03T21:58:55.302Z,99738.28
2022-10-03T22:01:31.439Z,99738.28
2022-10-03T22:04:05.758Z,99731.31
2022-10-03T22:06:37.999Z,99734.78
2022-10-03T22:09:14.422Z,99733.97
2022-10-03T22:11:47.584Z,99734.97
2022-10-03T22:14:27.406Z,99734.78
2022-10-03T22:17:01.541Z,99736.63
2022-10-03T22:19:37.806Z,99732.28
2022-10-03T22:22:18.341Z,99733.13
2022-10-03T22:24:59.844Z,99733.97
2022-10-03T22:27:35.007Z,99740.28
2022-10-03T22:30:07.232Z,99733.97
2022-10-03T22:32:41.833Z,99741.97
2022-10-03T22:35:30.491Z,99749.97
2022-10-03T22:37:58.998Z,99748.13
2022-10-03T22:40:29.978Z,99750.78
2022-10-03T22:43:01.573Z,99749.97
2022-10-03T22:45:32.481Z,99752.66
2022-10-03T22:48:04.250Z,99757.16
2022-10-03T22:50:40.272Z,99755.31
2022-10-03T22:53:10.735Z,99754.47
2022-10-03T22:55:45.348Z,99748.31
2022-10-03T22:58:14.720Z,99751.63
2022-10-03T23:00:43.875Z,99756.97
2022-10-03T23:03:15.459Z,99760.66
2022-10-03T23:06:26.319Z,99757.97
2022-10-03T23:09:05.880Z,99766.00
2022-10-03T23:11:37.428Z,99764.31
2022-10-03T23:14:13.313Z,99752.66
2022-10-03T23:16:52.846Z,99759.81
2022-10-03T23:19:35.010Z,99756.13
2022-10-03T23:22:03.658Z,99755.31
2022-10-03T23:24:39.312Z,99753.63
2022-10-03T23:27:45.109Z,99748.31
2022-10-03T23:30:55.540Z,99758.97
2022-10-03T23:33:50.362Z,99750.97
2022-10-03T23:36:21.508Z,99752.00
2022-10-03T23:39:01.473Z,99758.16
2022-10-03T23:41:58.999Z,99755.50
2022-10-03T23:44:36.411Z,99757.31
2022-10-03T23:47:06.577Z,99753.63
2022-10-03T23:49:37.231Z,99756.31
2022-10-03T23:52:07.793Z,99753.63
2022-10-03T23:54:36.129Z,99758.97
2022-10-03T23:57:08.578Z,99758.34
2022-10-03T23:59:39.821Z,99759.16
